NCAR-RAP Real-Time Weather Data

Output produced by METARs form (23 February 2020  01:31 UTC)
found at http://weather.rap.ucar.edu/surface/
 
KLAX 230053Z 26012KT 10SM SCT024 BKN090 BKN110 16/08 A3005 RMK AO2 SLP176 T01610083
KLAX 222353Z 24012KT 10SM SCT026 BKN042 BKN150 17/08 A3003 RMK AO2 SLP168 CB DSNT E 60000 T01670083 10189 20161 53000
KLAX 222253Z 24011KT 10SM SCT026 SCT042 BKN100 BKN150 18/09 A3002 RMK AO2 SLP165 CB DSNT E T01780089
KLAX 222153Z 24011KT 10SM FEW026 SCT042 SCT080 BKN160 BKN200 18/09 A3003 RMK AO2 LTG DSNT NW SLP167 T01780089
KLAX 222111Z COR 22009KT 190V260 10SM FEW026 SCT041 SCT070 BKN200 17/09 A3003 RMK AO2 OCNL LTG DSNT NE TS DSNT NE CB DSNT N T01720089
KLAX 222053Z 24010KT 10SM VCTS SCT041CB SCT070 BKN200 17/08 A3003 RMK AO2 SLP168 OCNL LTGICCC VC E TS E MOV NE CB NW 60000 T01720083 58008
KLAX 222027Z COR 23010KT 10SM VCTS SCT043CB SCT070 SCT090 BKN200 17/08 A3004 RMK AO2 OCNL LTGICCC VC SE TS SE MOV NE CB NW T01720083
KLAX 221953Z 24011KT 10SM FEW047 SCT070 SCT090 BKN160 18/08 A3004 RMK AO2 SLP173 CB DSNT NW T01830083
KLAX 221853Z 22004KT 10SM SCT047 BKN070 BKN085 18/09 A3004 RMK AO2 RAB03E48 SLP173 P0000 T01780089
KLAX 221753Z 26007KT 10SM SCT031 BKN043 OVC070 17/09 A3005 RMK AO2 SLP176 60000 T01720089 10183 20144 51014
KLAX 221653Z 18004KT 10SM FEW022 SCT027 BKN035 16/09 A3005 RMK AO2 SLP174 T01610094
KLAX 221553Z 00000KT 10SM FEW017 SCT030 BKN110 15/09 A3004 RMK AO2 SLP171 T01500094
KLAX 221453Z 17003KT 10SM FEW015 SCT030 BKN110 14/09 A3001 RMK AO2 RAB27E35 SLP162 P0000 60000 T01440094 53007
KLAX 221353Z 09005KT 10SM SCT015 BKN030 BKN100 14/10 A3000 RMK AO2 SLP159 T01440100
KLAX 221253Z 13005KT 10SM FEW021 BKN043 BKN100 15/10 A3000 RMK AO2 SLP156 T01500100
KLAX 221153Z 15004KT 10SM BKN021 BKN032 BKN100 16/10 A2999 RMK AO2 SLP153 T01560100 10172 20139 58006
KLAX 221053Z 10005KT 10SM SCT025 BKN100 15/09 A2999 RMK AO2 SLP153 T01500094
KLAX 220953Z 17007KT 10SM BKN033 BKN100 16/11 A3001 RMK AO2 SLP161 T01560106
KLAX 220853Z 17008KT 10SM SCT018 BKN029 BKN100 16/11 A3001 RMK AO2 SLP157 SCT V BKN T01610106 55004
KLAX 220753Z 13008KT 10SM BKN024 BKN110 16/11 A3000 RMK AO2 SLP158 BKN024 V SCT T01610111 402560133
KLAX 220653Z 11007KT 10SM FEW015 FEW030 BKN100 17/12 A3001 RMK AO2 SLP158 T01670117
KLAX 220553Z 09009KT 10SM BKN015 BKN029 BKN110 17/12 A3002 RMK AO2 SLP163 BKN015 V SCT 60000 T01670117 10211 20161 50004
KLAX 220453Z 00000KT 10SM SCT016 SCT024 OVC100 16/11 A3003 RMK AO2 SLP165 T01610111
KLAX 220353Z 25005KT 10SM FEW018 SCT029 BKN100 16/12 A3003 RMK AO2 SLP166 T01610122
KLAX 220338Z 26007KT 10SM SCT017 SCT028 OVC100 16/12 A3002 RMK AO2 T01610122
KLAX 220253Z 25007KT 10SM FEW007 BKN018 BKN100 17/12 A3001 RMK AO2 SLP160 60000 T01670122 53020
KLAX 220153Z 25010KT 7SM FEW007 BKN075 BKN110 BKN160 17/13 A2998 RMK AO2 RAB23E49 SLP150 P0000 T01670133
KLAX 220053Z 26009KT 6SM HZ FEW008 SCT110 BKN160 BKN270 18/13 A2995 RMK AO2 SLP139 T01830133
KLAX 220032Z 25010KT 8SM FEW008 SCT110 SCT160 BKN270 18/13 A2995 RMK AO2 T01780133
KLAX 212353Z 25011KT 10SM SCT120 SCT160 BKN280 22/11 A2994 RMK AO2 SLP138 T02170111 10256 20194 56012
KLAX 212253Z 28009KT 10SM SCT120 BKN160 BKN280 20/13 A2995 RMK AO2 SLP141 T02000128
KLAX 212153Z 28011KT 10SM FEW110 BKN180 21/12 A2996 RMK AO2 SLP145 T02110122
KLAX 212053Z COR 17005KT 10SM FEW120 SCT160 BKN180 25/02 A2997 RMK AO2 SLP150 T02500022 58017
KLAX 211953Z 26007KT 10SM FEW100 SCT160 BKN180 24/11 A3000 RMK AO2 SLP159 T02390106
KLAX 211853Z 09003KT 10SM FEW140 SCT160 BKN180 23/03 A3002 RMK AO2 SLP165 T02330028
KLAX 211753Z 11006KT 10SM FEW140 BKN160 BKN250 22/02 A3003 RMK AO2 SLP166 T02170017 10217 20133 51008
KLAX 211653Z 07007KT 10SM FEW140 BKN160 BKN250 20/02 A3002 RMK AO2 SLP164 T02000022
KLAX 211553Z 08004KT 10SM FEW140 BKN160 BKN250 17/04 A3002 RMK AO2 SLP165 T01670044
KLAX 211453Z 09003KT 10SM FEW120 BKN160 BKN220 16/04 A3001 RMK AO2 SLP159 T01560039 53007
KLAX 211353Z 13004KT 10SM FEW120 BKN160 BKN200 14/04 A2999 RMK AO2 SLP155 T01440044
KLAX 211253Z 10003KT 10SM BKN150 BKN180 14/05 A2999 RMK AO2 SLP152 T01390050
KLAX 211153Z 06003KT 10SM BKN150 BKN180 14/07 A2999 RMK AO2 SLP152 T01440072 10167 20144 58017
KLAX 211053Z 00000KT 10SM BKN150 15/09 A3000 RMK AO2 SLP156 T01500089
KLAX 210953Z 27005KT 10SM BKN150 15/12 A3003 RMK AO2 SLP166 T01500122
KLAX 210853Z 25005KT 10SM FEW014 SCT150 15/09 A3004 RMK AO2 SLP169 T01500094 56009
KLAX 210753Z 09005KT 10SM FEW014 SCT150 BKN220 16/09 A3004 RMK AO2 SLP169 T01560094 402500117
KLAX 210653Z COR VRB03KT 10SM FEW014 BKN150 17/12 A3005 RMK AO2 SLP173 T01670122
KLAX 210553Z 22004KT 10SM FEW150 16/12 A3006 RMK AO2 SLP179 T01610117 10194 20161 53014
KLAX 210453Z 23008KT 10SM CLR 16/11 A3006 RMK AO2 SLP176 T01610111
KLAX 210353Z 36004KT 10SM CLR 17/09 A3002 RMK AO2 SLP167 T01720089
KLAX 210253Z 27006KT 10SM CLR 17/10 A3002 RMK AO2 SLP165 T01670100 55003
KLAX 210153Z 25007KT 9SM FEW150 FEW250 17/11 A3002 RMK AO2 SLP165 T01720106